Time;durP1;ratioP1;P1;durP2;ratioP2;P2;SDS_P1;SDS_P2;PMS_P1;PMS_P2;Temp;Humidity;BMP_temperature;BMP_pressure;BME280_temperature;BME280_humidity;BME280_pressure;Samples;Min_cycle;Max_cycle;Signal;HPM_P1;HPM_P2
2021/07/21 06:28:00;;;;;;;4.85;2.67;;;;;;;26.93;49.51;102174.16;4980937;28;20143;-65
2021/07/21 06:30:25;;;;;;;5.32;2.72;;;;;;;26.99;49.46;102180.56;4927406;28;20129;-63
2021/07/21 06:32:50;;;;;;;4.82;2.70;;;;;;;27.01;49.66;102176.66;4937250;28;20072;-63
2021/07/21 06:35:16;;;;;;;4.72;2.38;;;;;;;27.02;49.74;102178.31;4938796;28;20035;-63
2021/07/21 06:37:42;;;;;;;3.88;2.60;;;;;;;27.03;49.85;102182.66;4916752;29;20135;-64
2021/07/21 06:40:08;;;;;;;5.13;2.70;;;;;;;27.04;50.03;102172.72;4935599;28;20149;-66
2021/07/21 06:42:34;;;;;;;4.78;2.75;;;;;;;27.06;50.11;102173.31;4953162;28;20027;-70
2021/07/21 06:44:59;;;;;;;5.82;3.33;;;;;;;27.05;49.93;102177.06;4952902;28;20796;-72
2021/07/21 06:47:25;;;;;;;6.68;3.00;;;;;;;27.06;49.96;102171.44;4924462;28;20046;-68
2021/07/21 06:49:51;;;;;;;7.97;3.03;;;;;;;27.07;50.24;102172.28;4935295;29;20055;-67
2021/07/21 06:52:18;;;;;;;8.00;3.08;;;;;;;27.08;50.20;102174.75;4952306;28;20053;-66
2021/07/21 06:54:44;;;;;;;5.45;2.83;;;;;;;27.09;50.25;102181.78;4952089;28;20060;-69
2021/07/21 06:57:10;;;;;;;4.65;2.53;;;;;;;27.11;50.31;102186.97;4954576;28;20094;-67
2021/07/21 06:59:37;;;;;;;6.07;2.50;;;;;;;27.13;50.32;102184.88;4935126;29;20109;-67
2021/07/21 07:02:04;;;;;;;5.70;2.50;;;;;;;27.14;50.50;102183.81;4949679;28;20035;-70
2021/07/21 07:04:29;;;;;;;5.32;2.50;;;;;;;27.14;50.27;102181.13;4949252;28;20049;-68
2021/07/21 07:06:56;;;;;;;4.60;2.42;;;;;;;27.15;49.77;102183.66;4916996;28;20035;-71
2021/07/21 07:09:21;;;;;;;6.05;2.50;;;;;;;27.15;49.43;102185.50;4955648;28;20152;-67
2021/07/21 07:11:47;;;;;;;5.78;2.40;;;;;;;27.14;49.42;102186.53;4935315;29;20139;-66
2021/07/21 07:14:13;;;;;;;4.32;2.38;;;;;;;27.14;49.24;102186.53;4955886;28;20460;-66
2021/07/21 07:16:39;;;;;;;4.80;2.42;;;;;;;27.13;49.02;102184.88;4952471;28;20043;-67
2021/07/21 07:19:04;;;;;;;6.55;2.53;;;;;;;27.13;48.76;102190.25;4953406;28;20086;-67
2021/07/21 07:21:30;;;;;;;3.67;2.10;;;;;;;27.13;48.75;102198.34;4935238;29;20113;-66
2021/07/21 07:23:57;;;;;;;4.43;2.15;;;;;;;27.11;48.61;102198.56;4940103;28;20057;-65
2021/07/21 07:26:24;;;;;;;4.53;2.40;;;;;;;27.11;48.39;102197.72;4923062;28;20452;-65
2021/07/21 07:28:53;;;;;;;3.97;2.10;;;;;;;27.09;48.55;102203.34;4951755;28;20055;-65
2021/07/21 07:31:19;;;;;;;5.80;2.30;;;;;;;27.09;48.55;102199.81;4952818;28;20070;-65
2021/07/21 07:33:44;;;;;;;7.00;2.47;;;;;;;27.08;48.38;102206.25;4931687;29;20125;-67
2021/07/21 07:36:09;;;;;;;9.52;2.78;;;;;;;27.08;48.46;102200.84;4951868;28;20496;-66
2021/07/21 07:38:35;;;;;;;5.05;2.47;;;;;;;27.08;48.66;102198.16;4938339;28;20035;-65
2021/07/21 07:41:00;;;;;;;7.93;3.00;;;;;;;27.09;48.64;102199.81;4917342;29;20036;-64
2021/07/21 07:43:26;;;;;;;10.25;2.88;;;;;;;27.08;48.75;102204.38;4935468;28;20042;-68
2021/07/21 07:45:52;;;;;;;8.90;3.55;;;;;;;27.09;48.76;102199.81;4939222;29;20595;-66
2021/07/21 07:48:17;;;;;;;7.15;3.65;;;;;;;27.08;48.84;102203.56;4960209;28;20034;-66
2021/07/21 07:50:43;;;;;;;8.00;3.53;;;;;;;27.08;48.66;102203.56;4939130;29;20479;-66
2021/07/21 07:53:09;;;;;;;6.95;3.70;;;;;;;27.08;48.62;102208.94;4957345;28;20169;-66
2021/07/21 07:55:36;;;;;;;13.45;4.40;;;;;;;27.07;48.77;102208.13;4928980;28;20423;-68
2021/07/21 07:58:03;;;;;;;7.45;3.38;;;;;;;27.07;48.78;102202.72;4947386;28;20090;-68
2021/07/21 08:00:31;;;;;;;8.38;3.17;;;;;;;27.06;48.91;102205.63;4956874;28;20045;-69
2021/07/21 08:02:57;;;;;;;8.43;3.47;;;;;;;27.06;49.01;102208.31;4956169;28;20035;-69
2021/07/21 08:05:22;;;;;;;9.02;3.30;;;;;;;27.06;48.72;102208.31;4956689;28;20123;-69
2021/07/21 08:07:48;;;;;;;6.45;3.20;;;;;;;27.06;48.84;102209.16;4938684;29;20577;-69
2021/07/21 08:10:14;;;;;;;6.75;3.13;;;;;;;27.06;48.88;102217.22;4938113;29;20536;-69
2021/07/21 08:12:44;;;;;;;8.63;2.92;;;;;;;27.06;48.68;102217.22;4956669;28;20042;-68
2021/07/21 08:15:14;;;;;;;7.63;3.85;;;;;;;27.05;48.43;102209.38;4938208;29;20134;-68
2021/07/21 08:17:40;;;;;;;5.28;2.95;;;;;;;27.06;48.52;102211.03;4953926;28;20502;-70
2021/07/21 08:20:07;;;;;;;7.63;3.30;;;;;;;27.06;48.36;102211.03;4946484;28;20042;-68
2021/07/21 08:22:39;;;;;;;6.25;2.60;;;;;;;27.06;48.39;102216.41;4922804;28;20099;-68
2021/07/21 08:25:10;;;;;;;7.82;3.00;;;;;;;27.05;48.11;102212.06;4955357;28;20101;-68
2021/07/21 08:27:37;;;;;;;5.68;2.60;;;;;;;27.05;48.14;102212.06;4956635;28;20035;-68
2021/07/21 08:30:06;;;;;;;6.78;2.40;;;;;;;27.05;48.03;102220.97;4938136;29;20683;-68
2021/07/21 08:32:32;;;;;;;4.28;2.60;;;;;;;27.05;47.95;102222.84;4955682;28;20039;-69
2021/07/21 08:34:57;;;;;;;5.72;2.70;;;;;;;27.04;47.73;102213.09;4955535;28;20071;-68
2021/07/21 08:37:23;;;;;;;4.25;2.50;;;;;;;27.02;47.70;102209.81;4947233;28;20059;-68
2021/07/21 08:39:48;;;;;;;4.30;2.30;;;;;;;27.03;47.65;102211.47;4946355;28;20039;-68
2021/07/21 08:42:14;;;;;;;6.38;2.45;;;;;;;27.03;47.47;102216.84;4956199;28;20046;-68
2021/07/21 08:44:40;;;;;;;4.45;3.17;;;;;;;27.03;47.41;102217.66;4954583;28;20043;-68
2021/07/21 08:47:09;;;;;;;6.03;2.78;;;;;;;27.03;47.49;102220.38;4944424;28;20205;-68
2021/07/21 08:49:35;;;;;;;4.63;2.70;;;;;;;27.03;47.53;102222.22;4955265;28;20035;-68
2021/07/21 08:52:02;;;;;;;3.80;2.30;;;;;;;27.03;47.24;102217.66;4944391;28;20030;-68
2021/07/21 08:54:28;;;;;;;3.13;2.38;;;;;;;27.02;47.32;102225.97;4953799;28;20140;-68
2021/07/21 08:56:57;;;;;;;4.55;2.45;;;;;;;27.04;47.25;102222.00;4955860;28;20104;-68
2021/07/21 08:59:24;;;;;;;4.07;2.10;;;;;;;27.03;47.13;102216.84;4943523;28;20085;-68
2021/07/21 09:01:49;;;;;;;4.90;2.47;;;;;;;27.03;47.12;102214.16;4954338;28;20047;-68
2021/07/21 09:04:15;;;;;;;3.55;2.22;;;;;;;27.03;47.11;102217.66;4939261;29;20116;-68
2021/07/21 09:06:41;;;;;;;3.97;2.50;;;;;;;27.04;46.94;102218.50;4954799;28;20039;-69
2021/07/21 09:09:08;;;;;;;3.38;2.00;;;;;;;27.04;46.82;102215.78;4952952;28;20471;-68
2021/07/21 09:11:37;;;;;;;3.92;2.28;;;;;;;27.05;46.90;102217.44;4945320;28;20042;-68
2021/07/21 09:14:03;;;;;;;5.25;2.50;;;;;;;27.05;47.04;102220.16;4955728;28;20093;-67
2021/07/21 09:16:29;;;;;;;3.70;2.22;;;;;;;27.05;46.93;102225.53;4937188;29;20035;-68
2021/07/21 09:18:58;;;;;;;3.38;2.13;;;;;;;27.06;46.77;102228.00;4954789;28;20046;-68
2021/07/21 09:21:26;;;;;;;3.03;1.90;;;;;;;27.05;46.70;102220.97;4922285;29;20080;-67
2021/07/21 09:23:57;;;;;;;3.58;2.05;;;;;;;27.04;46.62;102215.78;4954178;28;20041;-67
2021/07/21 09:26:22;;;;;;;3.92;2.05;;;;;;;27.04;46.57;102218.50;4953581;28;20059;-67
2021/07/21 09:28:50;;;;;;;3.20;2.10;;;;;;;27.03;46.17;102217.66;4954301;28;20469;-67
2021/07/21 09:31:37;;;;;;;2.38;1.92;;;;;;;26.99;46.21;102212.91;4955554;28;20056;-67
2021/07/21 09:34:20;;;;;;;3.65;1.70;;;;;;;27.00;46.17;102217.25;4937176;29;20035;-67
2021/07/21 09:36:47;;;;;;;3.30;1.95;;;;;;;27.02;45.91;102216.00;4950857;28;20107;-67
2021/07/21 09:39:14;;;;;;;3.78;1.88;;;;;;;27.04;45.92;102223.88;4941098;28;20050;-67
2021/07/21 09:41:53;;;;;;;3.45;1.67;;;;;;;26.99;45.69;102221.81;4955176;28;20059;-67
2021/07/21 09:44:18;;;;;;;4.30;1.90;;;;;;;27.02;45.60;102223.28;4954727;28;20559;-67
2021/07/21 09:46:44;;;;;;;3.40;1.83;;;;;;;27.02;45.37;102220.56;4943301;28;20037;-67
2021/07/21 09:49:19;;;;;;;3.42;2.22;;;;;;;26.96;45.16;102224.06;4940960;28;20129;-68
2021/07/21 09:51:45;;;;;;;4.22;1.92;;;;;;;26.97;45.05;102223.84;4954788;28;20043;-67
2021/07/21 09:54:16;;;;;;;2.50;1.80;;;;;;;26.96;44.91;102227.59;4953696;28;20031;-68
2021/07/21 09:56:41;;;;;;;2.63;1.80;;;;;;;26.96;44.77;102232.97;4954113;28;20031;-67
2021/07/21 09:59:23;;;;;;;3.22;2.03;;;;;;;26.93;44.53;102232.56;4954791;28;20042;-67
2021/07/21 10:01:49;;;;;;;3.28;2.05;;;;;;;26.97;44.93;102233.78;4953691;28;20170;-67
2021/07/21 10:04:33;;;;;;;2.85;1.83;;;;;;;26.94;45.10;102235.06;4943188;28;20059;-67
2021/07/21 10:06:59;;;;;;;3.53;1.88;;;;;;;26.98;45.00;102233.59;4936287;28;20377;-67
2021/07/21 10:09:25;;;;;;;5.18;1.85;;;;;;;26.99;44.70;102232.56;4953859;28;20034;-67
2021/07/21 10:11:53;;;;;;;3.35;1.92;;;;;;;26.99;44.85;102234.44;4936511;29;20039;-67
2021/07/21 10:14:18;;;;;;;3.00;2.10;;;;;;;27.00;44.88;102230.72;4954717;28;20507;-67
2021/07/21 10:16:49;;;;;;;5.10;2.15;;;;;;;26.99;44.79;102235.25;4953926;28;20122;-67
2021/07/21 10:19:17;;;;;;;4.32;2.28;;;;;;;27.00;44.82;102233.41;4954721;28;20038;-67
2021/07/21 10:21:46;;;;;;;4.85;2.50;;;;;;;26.98;44.83;102230.06;4953482;28;20035;-67
2021/07/21 10:24:13;;;;;;;3.55;2.20;;;;;;;26.97;44.63;102242.69;4954099;28;20054;-67
2021/07/21 10:26:40;;;;;;;5.32;2.50;;;;;;;26.98;44.64;102235.44;4936576;29;20027;-67
2021/07/21 10:29:06;;;;;;;3.78;2.05;;;;;;;26.98;44.89;102241.66;4941166;28;20087;-67
2021/07/21 10:31:34;;;;;;;5.03;2.35;;;;;;;26.97;44.95;102241.88;4942785;28;20046;-67
2021/07/21 10:34:00;;;;;;;2.83;2.00;;;;;;;26.98;44.90;102243.53;4953245;28;20094;-67
2021/07/21 10:36:26;;;;;;;3.67;2.15;;;;;;;26.98;44.92;102235.44;4941892;28;20035;-67
2021/07/21 10:38:52;;;;;;;3.35;2.17;;;;;;;26.98;44.80;102238.97;4938363;28;20454;-67
2021/07/21 10:41:18;;;;;;;3.88;2.33;;;;;;;26.99;45.20;102242.53;4942685;28;20370;-67
2021/07/21 10:43:53;;;;;;;3.08;2.05;;;;;;;26.97;45.00;102245.41;4952795;28;20079;-67
2021/07/21 10:46:39;;;;;;;3.38;2.20;;;;;;;26.94;44.88;102243.13;4953379;28;20039;-67
2021/07/21 10:49:17;;;;;;;5.85;2.70;;;;;;;26.97;45.37;102239.19;4934804;29;20387;-68
2021/07/21 11:00:06;;;;;;;4.88;1.90;;;;;;;26.99;45.06;102250.59;4953016;28;20039;-67
2021/07/21 11:02:32;;;;;;;3.10;2.00;;;;;;;26.98;44.88;102240.84;4953900;28;20041;-67
2021/07/21 11:04:57;;;;;;;3.00;1.95;;;;;;;26.97;44.99;102240.00;4952553;28;20480;-67
2021/07/21 11:07:50;;;;;;;3.40;1.80;;;;;;;26.93;44.93;102243.34;4953793;28;20027;-67
2021/07/21 11:10:31;;;;;;;2.33;1.80;;;;;;;26.93;44.90;102248.72;4934882;29;20574;-67
2021/07/21 11:12:57;;;;;;;2.80;1.88;;;;;;;26.96;44.95;102245.59;4952578;28;20028;-67
2021/07/21 11:15:41;;;;;;;4.63;2.22;;;;;;;26.91;44.90;102248.94;4952938;28;20094;-67
2021/07/21 11:18:22;;;;;;;3.13;1.90;;;;;;;26.91;44.94;102248.94;4941056;28;20039;-67
2021/07/21 11:20:58;;;;;;;4.22;1.90;;;;;;;26.90;44.88;102249.16;4936154;28;20469;-67
2021/07/21 11:23:43;;;;;;;2.70;1.77;;;;;;;26.88;44.64;102243.16;4952688;28;20039;-67
2021/07/21 11:26:39;;;;;;;3.72;1.92;;;;;;;26.88;45.06;102244.00;4954154;28;20114;-68
2021/07/21 11:29:25;;;;;;;3.58;2.22;;;;;;;26.89;45.13;102242.13;4952304;28;20047;-67
2021/07/21 11:31:53;;;;;;;3.50;1.85;;;;;;;26.93;45.06;102241.47;4936205;28;20461;-67
2021/07/21 11:34:32;;;;;;;6.28;2.00;;;;;;;26.90;45.09;102239.22;4950279;28;20086;-67
2021/07/21 11:37:06;;;;;;;2.30;1.77;;;;;;;26.95;45.15;102241.25;4922957;29;20031;-67
2021/07/21 11:39:42;;;;;;;3.47;2.00;;;;;;;26.92;45.24;102236.31;4944390;28;20043;-67
2021/07/21 11:42:38;;;;;;;3.78;1.85;;;;;;;26.90;45.22;102235.69;4941741;28;20062;-68
2021/07/21 11:45:11;;;;;;;3.60;2.05;;;;;;;26.94;45.07;102235.06;4945099;28;20036;-67
2021/07/21 11:47:45;;;;;;;3.80;1.80;;;;;;;26.95;45.33;102230.50;4952493;28;20074;-67
2021/07/21 11:50:14;;;;;;;4.32;1.88;;;;;;;26.94;45.16;102240.44;4953503;28;20043;-67
2021/07/21 11:52:40;;;;;;;3.50;1.77;;;;;;;26.95;45.41;102239.41;4952418;28;20757;-67
2021/07/21 11:55:07;;;;;;;3.97;2.30;;;;;;;26.96;45.32;102238.34;4948907;28;20035;-67
2021/07/21 11:57:33;;;;;;;3.53;2.03;;;;;;;26.98;45.27;102251.59;4953577;28;20043;-67
2021/07/21 12:00:00;;;;;;;2.65;1.70;;;;;;;26.98;45.51;102243.53;4952484;28;20043;-67
2021/07/21 12:02:26;;;;;;;3.83;1.95;;;;;;;26.98;45.32;102251.59;4936267;28;20035;-67
2021/07/21 12:04:54;;;;;;;3.00;1.70;;;;;;;26.97;45.18;102250.78;4934538;29;20071;-67
2021/07/21 12:07:22;;;;;;;5.22;1.60;;;;;;;26.98;45.41;102243.53;4924687;28;20492;-67
2021/07/21 12:09:50;;;;;;;2.22;1.45;;;;;;;26.96;45.34;102240.22;4951172;28;20063;-67
2021/07/21 12:12:18;;;;;;;4.32;1.98;;;;;;;26.97;45.40;102239.19;4953210;28;20074;-67
2021/07/21 12:14:55;;;;;;;3.33;1.70;;;;;;;26.95;45.29;102235.88;4952643;28;20054;-67
2021/07/21 12:17:23;;;;;;;2.92;1.67;;;;;;;26.96;45.20;102232.16;4953624;28;20047;-67
2021/07/21 12:19:54;;;;;;;2.97;1.58;;;;;;;26.96;45.07;102237.53;4952204;28;20531;-68
2021/07/21 12:22:20;;;;;;;3.22;1.83;;;;;;;26.97;45.35;102236.50;4952866;28;20036;-67
2021/07/21 12:24:48;;;;;;;2.28;1.50;;;;;;;26.96;45.39;102238.34;4952083;28;20114;-67
2021/07/21 12:27:20;;;;;;;4.65;1.77;;;;;;;26.97;45.47;102236.50;4935381;29;20034;-67
2021/07/21 12:29:46;;;;;;;3.70;2.03;;;;;;;26.98;45.63;102236.28;4952253;28;20039;-67
2021/07/21 12:32:15;;;;;;;5.20;2.08;;;;;;;26.99;45.79;102234.44;4935951;28;20175;-67
2021/07/21 12:34:43;;;;;;;3.95;1.85;;;;;;;27.00;45.90;102233.41;4938400;28;20027;-67
2021/07/21 12:37:14;;;;;;;7.10;2.20;;;;;;;26.99;46.16;102232.56;4919440;29;20055;-67
2021/07/21 12:39:41;;;;;;;3.42;1.98;;;;;;;27.02;46.25;102231.34;4954442;28;20455;-67
2021/07/21 12:42:21;;;;;;;5.20;1.83;;;;;;;26.98;46.41;102228.19;4952832;28;20058;-67
2021/07/21 12:44:50;;;;;;;2.80;1.83;;;;;;;27.02;46.73;102231.34;4948681;28;20028;-67
2021/07/21 12:47:24;;;;;;;4.20;2.10;;;;;;;27.00;46.94;102234.25;4926996;28;20086;-67
2021/07/21 12:49:54;;;;;;;3.80;1.75;;;;;;;27.01;47.04;102230.53;4952142;28;20053;-67
2021/07/21 12:52:26;;;;;;;4.38;2.17;;;;;;;27.01;47.37;102230.53;4962593;28;20403;-67
2021/07/21 12:54:56;;;;;;;6.60;2.20;;;;;;;27.00;47.45;102236.94;4954870;28;20043;-67
2021/07/21 12:57:31;;;;;;;5.03;2.17;;;;;;;26.99;47.52;102232.56;4945403;28;20026;-67
2021/07/21 13:00:03;;;;;;;5.38;2.00;;;;;;;27.01;47.69;102232.38;4932806;29;20090;-67
2021/07/21 13:02:28;;;;;;;4.85;2.08;;;;;;;27.01;47.82;102233.22;4962837;28;20034;-67
2021/07/21 13:04:54;;;;;;;3.17;1.95;;;;;;;27.01;48.04;102233.22;4957422;28;20039;-67
2021/07/21 13:07:21;;;;;;;4.40;2.40;;;;;;;27.01;48.06;102230.53;4961393;28;20077;-67
2021/07/21 13:09:54;;;;;;;3.67;2.30;;;;;;;27.01;48.35;102232.38;4959920;28;20408;-67
2021/07/21 13:12:20;;;;;;;6.03;2.40;;;;;;;27.03;48.42;102224.91;4960975;28;20039;-67
2021/07/21 13:14:56;;;;;;;3.65;2.30;;;;;;;27.00;48.42;102223.47;4961262;28;20563;-67
2021/07/21 13:17:24;;;;;;;4.25;2.63;;;;;;;27.01;48.71;102224.31;4960742;28;20042;-67
2021/07/21 13:20:07;;;;;;;4.07;2.47;;;;;;;26.98;48.85;102221.97;4961303;28;20031;-67
2021/07/21 13:22:34;;;;;;;4.60;2.47;;;;;;;27.01;48.60;102225.13;4935727;28;20058;-67
2021/07/21 13:25:11;;;;;;;4.25;2.60;;;;;;;26.98;48.91;102224.69;4960031;28;20034;-67
2021/07/21 13:27:36;;;;;;;3.85;2.30;;;;;;;27.00;48.89;102228.00;4959966;28;20393;-67
2021/07/21 13:30:23;;;;;;;4.30;2.50;;;;;;;26.96;49.01;102221.38;4953070;28;20059;-67
2021/07/21 13:32:48;;;;;;;3.75;2.50;;;;;;;27.00;48.79;102228.00;4943926;28;20387;-67
2021/07/21 13:35:14;;;;;;;3.95;2.47;;;;;;;27.01;49.03;102232.38;4960799;28;20023;-67
2021/07/21 13:37:40;;;;;;;3.10;2.60;;;;;;;27.00;49.17;102230.72;4946841;28;20034;-67
2021/07/21 13:40:09;;;;;;;3.80;2.80;;;;;;;27.01;49.14;102218.91;4949439;28;20061;-67
2021/07/21 13:42:35;;;;;;;4.93;2.53;;;;;;;27.00;49.53;102222.63;4944052;28;20062;-67
2021/07/21 13:45:04;;;;;;;3.70;2.13;;;;;;;26.99;49.17;102227.19;4954947;28;20480;-67
2021/07/21 13:47:30;;;;;;;3.47;2.38;;;;;;;27.00;49.53;102222.63;4942814;28;20042;-67
2021/07/21 13:50:08;;;;;;;3.97;2.72;;;;;;;26.97;49.56;102225.72;4954065;28;20035;-67
2021/07/21 13:52:34;;;;;;;4.90;2.38;;;;;;;27.00;49.29;102222.63;4942352;28;20023;-67
2021/07/21 13:55:00;;;;;;;3.60;2.40;;;;;;;27.00;49.45;102228.00;4953365;28;20043;-67
2021/07/21 13:57:27;;;;;;;6.07;2.70;;;;;;;27.01;49.37;102221.63;4954817;28;20122;-67
2021/07/21 13:59:53;;;;;;;3.83;2.40;;;;;;;27.01;49.66;102218.91;4953831;28;20054;-67
2021/07/21 14:02:22;;;;;;;4.60;2.60;;;;;;;27.02;49.61;102223.28;4954696;28;20148;-67
2021/07/21 14:04:49;;;;;;;3.65;2.45;;;;;;;27.02;49.47;102220.56;4953891;28;20500;-67
2021/07/21 14:07:15;;;;;;;5.07;2.63;;;;;;;27.02;49.57;102220.56;4921875;28;20389;-67
2021/07/21 14:09:42;;;;;;;3.50;2.40;;;;;;;27.03;49.76;102223.06;4952950;28;20034;-67
2021/07/21 14:12:07;;;;;;;3.55;2.53;;;;;;;27.03;49.69;102217.66;4937257;28;20510;-67
2021/07/21 14:14:33;;;;;;;4.15;2.50;;;;;;;27.02;49.58;102216.00;4937276;29;20118;-67
2021/07/21 14:16:59;;;;;;;5.18;2.53;;;;;;;27.03;49.81;102223.06;4936396;29;20043;-67
2021/07/21 14:19:25;;;;;;;5.88;2.63;;;;;;;27.04;49.97;102213.09;4937238;28;20059;-67
2021/07/21 14:21:53;;;;;;;4.13;2.80;;;;;;;27.04;49.68;102213.94;4953605;28;20042;-67
2021/07/21 14:24:20;;;;;;;5.72;2.92;;;;;;;27.03;49.97;102212.28;4952084;28;20043;-66
2021/07/21 14:26:45;;;;;;;3.75;2.92;;;;;;;27.04;49.82;102207.72;4943140;28;20461;-66
2021/07/21 14:29:11;;;;;;;3.42;2.40;;;;;;;27.05;50.01;102212.06;4951904;28;20055;-66
2021/07/21 14:31:37;;;;;;;4.65;2.70;;;;;;;27.04;50.03;102203.16;4936662;29;20130;-66
2021/07/21 14:34:03;;;;;;;5.10;2.33;;;;;;;27.04;49.99;102203.16;4919851;29;20043;-66
2021/07/21 14:36:28;;;;;;;5.22;2.60;;;;;;;27.04;50.15;102205.84;4941499;28;20035;-67
2021/07/21 14:38:55;;;;;;;4.75;2.28;;;;;;;27.06;50.00;102211.03;4939639;28;20765;-67
2021/07/21 14:41:23;;;;;;;4.43;2.70;;;;;;;27.06;50.01;102209.16;4941953;28;20039;-66
2021/07/21 14:43:49;;;;;;;3.22;2.30;;;;;;;27.06;49.94;102214.53;4953446;28;20050;-66
2021/07/21 14:46:15;;;;;;;4.22;2.42;;;;;;;27.07;50.12;102218.88;4943423;28;20082;-66
2021/07/21 14:48:41;;;;;;;4.22;2.53;;;;;;;27.07;49.93;102212.66;4950163;28;20035;-66
2021/07/21 14:51:06;;;;;;;4.05;2.63;;;;;;;27.07;50.12;102201.91;4952894;28;20042;-66
2021/07/21 14:53:32;;;;;;;6.22;2.80;;;;;;;27.06;49.85;102211.84;4953864;28;20035;-66
2021/07/21 14:55:58;;;;;;;3.90;2.42;;;;;;;27.06;49.87;102211.03;4952361;28;20046;-66
2021/07/21 14:58:23;;;;;;;4.10;2.88;;;;;;;27.07;49.79;102209.97;4935875;29;20031;-67
2021/07/21 15:00:49;;;;;;;4.47;2.75;;;;;;;27.06;49.97;102203.78;4953446;28;20377;-67
2021/07/21 15:03:15;;;;;;;4.68;2.70;;;;;;;27.08;49.80;102206.25;4953201;28;20071;-67
2021/07/21 15:05:41;;;;;;;4.03;2.75;;;;;;;27.09;49.78;102215.97;4936490;28;20042;-67
2021/07/21 15:08:09;;;;;;;4.57;2.83;;;;;;;27.08;49.82;102201.69;4953017;28;20420;-67
2021/07/21 15:10:36;;;;;;;4.05;2.70;;;;;;;27.10;49.53;102204.16;4953127;28;20030;-68
2021/07/21 15:13:02;;;;;;;3.72;2.58;;;;;;;27.08;49.69;102199.00;4952917;28;20065;-67
2021/07/21 15:15:27;;;;;;;4.63;2.88;;;;;;;27.08;49.50;102200.84;4952908;28;20043;-67
2021/07/21 15:17:53;;;;;;;4.28;2.50;;;;;;;27.08;49.55;102198.16;4951786;28;20122;-68
2021/07/21 15:20:19;;;;;;;5.05;2.90;;;;;;;27.09;49.46;102202.50;4952831;28;20410;-67
2021/07/21 15:22:45;;;;;;;5.28;2.70;;;;;;;27.08;49.54;102195.47;4954026;28;20081;-67
2021/07/21 15:25:11;;;;;;;5.97;2.45;;;;;;;27.09;49.48;102197.94;4943869;28;20503;-68
2021/07/21 15:27:37;;;;;;;4.45;2.53;;;;;;;27.10;49.57;102196.91;4949757;28;20393;-68
2021/07/21 15:30:05;;;;;;;5.10;2.50;;;;;;;27.10;49.64;102199.59;4915730;29;20086;-66
2021/07/21 15:32:31;;;;;;;4.03;2.47;;;;;;;27.10;49.63;102198.78;4947213;28;20057;-67
2021/07/21 15:34:57;;;;;;;6.60;2.58;;;;;;;27.10;49.82;102190.69;4937233;28;20124;-63
2021/07/21 15:37:22;;;;;;;5.57;2.78;;;;;;;27.11;49.74;102192.34;4941909;28;20032;-66
2021/07/21 15:39:48;;;;;;;8.18;3.03;;;;;;;27.11;49.89;102189.66;4919849;28;20039;-65
2021/07/21 15:42:14;;;;;;;5.50;2.92;;;;;;;27.12;50.15;102188.59;4938257;28;20118;-66
2021/07/21 15:44:39;;;;;;;3.58;2.47;;;;;;;27.11;50.07;102193.16;4930606;28;20036;-62
2021/07/21 15:47:05;;;;;;;4.35;2.80;;;;;;;27.12;50.38;102188.59;4936838;28;20031;-63
2021/07/21 15:49:32;;;;;;;5.57;3.00;;;;;;;27.10;50.53;102183.44;4932127;28;20079;-65
2021/07/21 15:51:58;;;;;;;6.25;2.60;;;;;;;27.12;50.45;102188.59;4948844;28;20035;-65
2021/07/21 15:54:24;;;;;;;5.85;2.83;;;;;;;27.12;50.50;102191.31;4943429;28;20035;-64
2021/07/21 15:56:51;;;;;;;8.18;2.67;;;;;;;27.12;50.47;102189.44;4936884;28;20023;-65
2021/07/21 15:59:17;;;;;;;7.90;2.72;;;;;;;27.13;50.43;102192.94;4954336;28;20046;-65
2021/07/21 16:01:42;;;;;;;5.28;2.72;;;;;;;27.13;50.57;102190.25;4950181;28;20055;-66
2021/07/21 16:04:08;;;;;;;7.03;2.78;;;;;;;27.13;50.58;102187.56;4936652;28;20039;-66
2021/07/21 16:06:35;;;;;;;7.13;2.60;;;;;;;27.13;50.29;102190.25;4952994;28;20041;-65
2021/07/21 16:09:00;;;;;;;6.03;2.85;;;;;;;27.15;50.42;102185.50;4963402;28;20035;-65
2021/07/21 16:11:26;;;;;;;5.95;2.90;;;;;;;27.13;50.33;102192.94;4962889;28;20059;-66
2021/07/21 16:13:52;;;;;;;5.57;2.50;;;;;;;27.13;50.53;102185.69;4961580;28;20054;-66
2021/07/21 16:16:18;;;;;;;4.93;2.65;;;;;;;27.16;50.44;102195.25;4967023;28;20039;-66
2021/07/21 16:18:43;;;;;;;3.92;2.40;;;;;;;27.17;50.21;102196.06;4964555;28;20492;-66
2021/07/21 16:21:10;;;;;;;4.57;2.70;;;;;;;27.16;50.15;102195.25;4958071;28;20055;-66
2021/07/21 16:23:36;;;;;;;3.92;2.20;;;;;;;27.17;50.27;102185.28;4958695;28;20253;-66
2021/07/21 16:26:03;;;;;;;3.53;2.38;;;;;;;27.18;50.38;102181.56;4966233;28;20507;-66
2021/07/21 16:28:28;;;;;;;3.60;2.38;;;;;;;27.18;50.20;102186.94;4969115;28;20396;-65
2021/07/21 16:30:55;;;;;;;5.30;2.53;;;;;;;27.18;50.36;102187.78;4957643;28;20056;-66
2021/07/21 16:33:21;;;;;;;4.55;2.40;;;;;;;27.19;50.48;102188.59;4961795;28;20422;-66
2021/07/21 16:35:49;;;;;;;3.75;2.67;;;;;;;27.19;50.16;102192.13;4965067;28;20074;-66
2021/07/21 16:38:14;;;;;;;3.95;2.13;;;;;;;27.20;50.06;102190.25;4944976;28;20050;-66
2021/07/21 16:40:40;;;;;;;3.65;2.60;;;;;;;27.19;50.12;102184.03;4934501;29;20054;-66
2021/07/21 16:43:06;;;;;;;5.68;2.78;;;;;;;27.20;49.83;102188.38;4937849;29;20043;-66
2021/07/21 16:45:31;;;;;;;3.83;2.30;;;;;;;27.20;50.05;102183.00;4941015;29;20126;-65
2021/07/21 16:47:57;;;;;;;4.22;2.42;;;;;;;27.20;49.88;102182.16;4955004;28;20043;-66
2021/07/21 16:50:23;;;;;;;3.15;2.13;;;;;;;27.20;49.97;102183.00;4945101;28;20416;-66
2021/07/21 16:52:50;;;;;;;2.38;2.00;;;;;;;27.21;49.98;102186.50;4938080;29;20429;-66
2021/07/21 16:55:19;;;;;;;4.45;2.60;;;;;;;27.21;49.96;102184.63;4954945;28;20515;-66
2021/07/21 16:57:45;;;;;;;6.93;2.63;;;;;;;27.22;49.87;102188.16;4955174;28;20027;-66
2021/07/21 17:00:13;;;;;;;5.03;2.65;;;;;;;27.22;49.84;102182.78;4953382;28;20098;-66
2021/07/21 17:02:39;;;;;;;3.83;2.00;;;;;;;27.22;49.96;102183.59;4956446;28;20118;-66
2021/07/21 17:05:05;;;;;;;5.20;2.33;;;;;;;27.22;49.97;102186.28;4944640;28;20119;-66
2021/07/21 17:07:30;;;;;;;4.40;2.53;;;;;;;27.22;49.79;102182.78;4954610;28;20131;-66
2021/07/21 17:09:56;;;;;;;5.85;2.45;;;;;;;27.21;49.71;102181.94;4954294;28;20149;-66
2021/07/21 17:12:21;;;;;;;5.57;2.35;;;;;;;27.20;49.61;102182.16;4956886;28;20792;-66
2021/07/21 17:14:47;;;;;;;4.10;2.40;;;;;;;27.20;49.58;102179.47;4953879;28;20473;-66
2021/07/21 17:17:12;;;;;;;3.20;2.25;;;;;;;27.20;49.47;102174.91;4954398;28;20493;-66
2021/07/21 17:19:39;;;;;;;5.05;2.35;;;;;;;27.20;49.50;102174.09;4955829;28;20484;-66
2021/07/21 17:22:05;;;;;;;5.10;2.40;;;;;;;27.19;49.35;102178.66;4938305;29;20035;-65
2021/07/21 17:24:30;;;;;;;4.30;2.30;;;;;;;27.20;49.39;102174.91;4951839;28;20550;-66
2021/07/21 17:26:56;;;;;;;3.38;2.33;;;;;;;27.18;49.37;102166.22;4937811;29;20134;-66
2021/07/21 17:29:21;;;;;;;3.63;2.10;;;;;;;27.19;49.06;102172.44;4936903;28;20063;-66
2021/07/21 17:31:47;;;;;;;4.07;2.05;;;;;;;27.18;49.15;102177.00;4952925;28;20035;-66
2021/07/21 17:34:14;;;;;;;3.28;2.00;;;;;;;27.15;49.04;102172.03;4942565;28;20039;-66
2021/07/21 17:36:39;;;;;;;3.08;1.90;;;;;;;27.14;48.96;102175.75;4950098;28;20091;-65
2021/07/21 17:39:06;;;;;;;3.33;2.10;;;;;;;27.13;48.98;102176.78;4942004;28;20067;-64
2021/07/21 17:41:32;;;;;;;4.00;2.00;;;;;;;27.12;48.71;102172.44;4937859;28;20051;-65
2021/07/21 17:43:58;;;;;;;3.78;1.92;;;;;;;27.11;48.56;102176.19;4953040;28;20043;-66
2021/07/21 17:46:24;;;;;;;4.22;2.10;;;;;;;27.08;48.44;102173.91;4937687;28;20048;-66
2021/07/21 17:48:51;;;;;;;5.47;2.05;;;;;;;27.06;48.47;102171.44;4944584;28;20093;-66
2021/07/21 17:51:17;;;;;;;5.53;2.10;;;;;;;27.06;48.54;102173.31;4945893;28;20027;-65
2021/07/21 17:53:43;;;;;;;3.70;2.28;;;;;;;27.04;48.56;102170.00;4958285;28;20074;-66
2021/07/21 17:56:08;;;;;;;3.45;2.05;;;;;;;27.05;48.35;102175.19;4960099;28;20090;-67
2021/07/21 17:58:34;;;;;;;5.05;2.15;;;;;;;27.07;48.42;102174.97;4943366;28;20548;-64
2021/07/21 18:01:00;;;;;;;4.88;2.15;;;;;;;27.06;48.33;102174.13;4957239;28;20052;-66
2021/07/21 18:03:26;;;;;;;3.95;1.88;;;;;;;27.08;48.45;102179.31;4943941;28;20068;-66